Latest Coastal Weather Observations for Norah Head

IDN60701

Issued at 2:41 pm EST Saturday 27 August 2016 (issued every 10 minutes, with the page automatically refreshed every 10 minutes)

About coastal observations | Map of coastal stations | Coastal observations for NSW | Marine services | Other Formats
Station Details ID: 061366 Name: NORAH HEAD AWS Lat: -33.28 Lon: 151.58 Height: 18.8 m
Data from the previous 72 hours. | See also: Recent months at Norah Head
Date/Time
EST
Temp
°C
Wind Pressure Rain since
9am
mm
Weather Cloud Vis
km
Sea
Height
m
Swell
Dir  Spd
kts
Gust
kts
hPa Trend Height
m
Period
s
Dir
27/02:30pm 17.0 ESE 5 6 1020.7 - 0.0 - - - - - - -
27/02:00pm 17.9 SE 5 6 1021.1 - 0.0 - - - - - - -
27/01:30pm 17.9 SSE 6 7 1021.2 - 0.0 - - - - - - -
27/01:00pm 16.2 S 5 7 1021.7 - 0.0 - - - - - - -
27/12:30pm 16.9 SSW 5 7 1022.2 - 0.0 - - - - - - -
27/12:00pm 16.7 SW 5 7 1022.5 - 0.0 - - - - - - -
27/11:30am 15.9 SW 5 8 1022.7 - 0.0 - - - - - - -
27/11:00am 16.1 SW 5 8 1022.8 - 0.0 - - - - - - -
27/10:30am 15.3 WSW 5 9 1022.9 - 0.0 - - - - - - -
27/10:00am 14.1 WSW 5 9 1023.0 - 0.0 - - - - - - -
27/09:30am 12.6 W 3 6 1023.1 - 0.0 - - - - - - -
27/09:00am 11.5 WSW 6 9 1023.0 - 15.2 - - - - - - -
27/08:30am 11.5 WSW 5 10 1022.9 - 15.2 - - - - - - -
27/08:00am 9.9 WSW 5 8 1022.7 - 15.2 - - - - - - -
27/07:30am 9.6 WSW 5 8 1022.4 - 15.2 - - - - - - -
27/07:00am 9.0 WSW 6 10 1022.0 - 15.2 - - - - - - -
27/06:30am 9.0 W 7 10 1021.6 - 15.2 - - - - - - -
27/06:00am 9.8 WNW 1 4 1021.9 - 15.2 - - - - - - -
27/05:30am 9.9 WSW 4 6 1021.5 - 15.2 - - - - - - -
27/05:00am 9.8 WSW 5 8 1021.1 - 15.2 - - - - - - -
27/04:30am 9.9 WSW 6 8 1021.1 - 15.2 - - - - - - -
27/04:00am 9.9 WSW 7 12 1021.0 - 15.2 - - - - - - -
27/03:30am 9.8 W 7 10 1020.6 - 15.2 - - - - - - -
27/03:00am 9.7 WNW 6 10 1020.7 - 15.2 - - - - - - -
27/02:30am 9.7 W 7 10 1020.9 - 15.2 - - - - - - -
27/02:00am 9.8 W 7 10 1020.8 - 15.2 - - - - - - -
27/01:30am 10.5 W 7 10 1020.7 - 15.2 - - - - - - -
27/01:00am 13.1 SSW 10 15 1020.9 - 15.2 - - - - - - -
27/12:30am 13.3 SSW 14 18 1021.0 - 15.2 - - - - - - -
27/12:00am 13.1 SSW 16 23 1021.0 - 15.2 Recent precip. - - - - - -
 
Date/Time
EST
Temp
°C
Wind Pressure Rain since
9am
mm
Weather Cloud Vis
km
Sea
Height
m
Swell
Dir  Spd
kts
Gust
kts
hPa Trend Height
m
Period
s
Dir
26/11:30pm 12.9 SSW 15 20 1020.9 - 15.0 - - - - - - -
26/11:00pm 12.7 SSW 15 23 1020.8 - 14.2 - - - - - - -
26/10:53pm 12.4 SSW 11 23 1020.8 - 14.2 - - - - - - -
26/10:30pm 10.4 W 5 7 1020.8 - 14.2 - - - - - - -
26/10:00pm 10.5 W 5 7 1020.9 - 13.8 - - - - - - -
26/09:30pm 10.6 WNW 4 6 1021.1 - 13.8 - - - - - - -
26/09:00pm 11.2 NNW 5 8 1020.8 - 11.8 Recent precip. - - - - - -
26/08:30pm 11.1 NW 3 10 1020.9 - 11.2 - - - - - - -
26/08:00pm 11.1 NNW 7 11 1020.3 - 9.6 - - - - - - -
26/07:30pm 11.4 NNE 4 6 1020.6 - 9.6 - - - - - - -
26/07:00pm 11.6 WNW 4 7 1020.3 - 9.0 - - - - - - -
26/06:30pm 12.8 SW 9 16 1019.5 - 9.0 - - - - - - -
26/06:00pm 11.9 SSW 5 10 1019.0 - 9.0 Rain - - - - - -
26/05:30pm 11.6 SE 10 12 1018.9 - 8.6 - - - - - - -
26/05:00pm 12.0 SE 16 20 1018.4 - 8.2 - - - - - - -
26/04:30pm 12.3 SSE 14 20 1018.0 - 8.0 - - - - - - -
26/04:01pm 11.8 SSE 16 27 1018.1 - 7.2 - - - - - - -
26/04:00pm 11.8 SE 16 27 1018.1 - 7.2 - - - - - - -
26/03:30pm 13.3 SSE 13 21 1017.5 - 4.6 - - - - - - -
26/03:26pm 13.6 SSW 8 21 1017.5 - 4.6 - - - - - - -
26/03:00pm 11.8 NW 5 7 1017.3 - 4.6 Recent precip. - - - - - -
26/02:30pm 11.7 WNW 1 3 1017.6 - 4.4 - - - - - - -
26/02:00pm 11.1 WSW 4 6 1017.7 - 3.4 - - - - - - -
26/01:30pm 12.6 SSW 13 19 1017.8 - 0.6 - - - - - - -
26/01:00pm 13.4 WSW 5 8 1017.7 - 0.0 - - - - - - -
26/12:30pm 14.0 SSW 12 17 1018.0 - 0.0 - - - - - - -
26/12:00pm 13.8 SSW 12 19 1018.3 - 0.0 - - - - - - -
26/11:30am 13.6 SW 10 15 1018.6 - 0.0 - - - - - - -
26/11:00am 13.7 SSW 9 15 1018.7 - 0.0 - - - - - - -
26/10:30am 13.2 SW 8 16 1018.5 - 0.0 - - - - - - -
26/10:00am 12.9 SW 6 10 1018.2 - 0.0 - - - - - - -
26/09:30am 11.8 WSW 5 10 1018.3 - 0.0 - - - - - - -
26/09:00am 11.0 WSW 7 13 1018.4 - 2.2 - - - - - - -
26/08:30am 10.9 WSW 7 12 1018.4 - 2.2 - - - - - - -
26/08:00am 9.8 WSW 8 13 1018.3 - 2.2 - - - - - - -
26/07:30am 8.8 WSW 6 10 1018.1 - 2.2 - - - - - - -
26/07:00am 8.2 W 5 9 1017.7 - 2.2 - - - - - - -
26/06:30am 7.6 WNW 5 9 1017.0 - 2.2 - - - - - - -
26/06:00am 7.6 W 5 9 1016.7 - 2.2 - - - - - - -
26/05:30am 7.8 W 6 8 1016.3 - 2.2 - - - - - - -
26/05:00am 8.1 W 5 7 1016.2 - 2.2 - - - - - - -
26/04:30am 8.5 W 7 10 1015.9 - 2.2 - - - - - - -
26/04:00am 8.8 W 5 9 1015.6 - 2.2 - - - - - - -
26/03:30am 8.5 W 4 8 1015.5 - 2.2 - - - - - - -
26/03:00am 8.9 W 5 9 1015.6 - 2.2 - - - - - - -
26/02:30am 8.9 W 5 9 1015.4 - 2.2 - - - - - - -
26/02:00am 9.2 WSW 7 12 1015.4 - 2.2 - - - - - - -
26/01:30am 9.1 W 5 7 1015.5 - 2.2 - - - - - - -
26/01:00am 9.1 W 5 7 1015.4 - 2.2 - - - - - - -
26/12:30am 9.3 W 5 8 1015.2 - 2.2 - - - - - - -
26/12:00am 9.3 W 4 6 1015.2 - 2.2 - - - - - - -
 
Date/Time
EST
Temp
°C
Wind Pressure Rain since
9am
mm
Weather Cloud Vis
km
Sea
Height
m
Swell
Dir  Spd
kts
Gust
kts
hPa Trend Height
m
Period
s
Dir
25/11:30pm 9.2 WNW 4 7 1015.1 - 2.2 - - - - - - -
25/11:00pm 9.4 WNW 4 6 1014.7 - 2.2 - - - - - - -
25/10:30pm 9.7 WNW 4 6 1014.5 - 2.2 - - - - - - -
25/10:00pm 10.3 WNW 4 7 1014.4 - 2.2 - - - - - - -
25/09:30pm 10.5 WNW 5 7 1014.2 - 2.2 - - - - - - -
25/09:00pm 11.9 SSW 2 3 1014.0 - 2.2 Recent precip. - - - - - -
25/08:30pm 12.1 N 7 15 1013.7 - 2.2 - - - - - - -
25/08:00pm 10.7 SW 7 13 1014.5 - 1.4 - - - - - - -
25/07:30pm 11.8 WNW 5 10 1013.9 - 0.2 - - - - - - -
25/07:00pm 11.8 NW 5 10 1013.5 - 0.2 - - - - - - -
25/06:30pm 12.3 NW 3 6 1013.0 - 0.2 - - - - - - -
25/06:00pm 12.1 WNW 4 6 1012.5 - 0.2 Rain - - - - - -
25/05:30pm 12.9 WNW 4 8 1012.2 - 0.0 - - - - - - -
25/05:00pm 13.5 NW 4 6 1011.7 - 0.0 - - - - - - -
25/04:30pm 14.3 WSW 3 4 1011.3 - 0.0 - - - - - - -
25/04:00pm 14.9 SSW 6 9 1010.9 - 0.0 - - - - - - -
25/03:30pm 15.3 SSW 9 13 1010.6 - 0.0 - - - - - - -
25/03:00pm 15.9 SSW 10 14 1010.4 - 0.0 - - - - - - -
25/02:30pm 15.1 SSW 9 13 1010.3 - 0.0 - - - - - - -
25/02:00pm 15.2 SW 10 15 1010.2 - 0.0 - - - - - - -
25/01:30pm 15.8 SW 9 15 1010.0 - 0.0 - - - - - - -
25/01:00pm 15.1 SW 9 14 1010.1 - 0.0 - - - - - - -
25/12:30pm 14.7 SW 7 13 1010.2 - 0.0 - - - - - - -
25/12:00pm 14.2 SW 9 15 1010.3 - 0.0 - - - - - - -
25/11:30am 14.2 SW 9 15 1010.3 - 0.0 - - - - - - -
25/11:00am 13.3 WSW 11 18 1010.1 - 0.0 - - - - - - -
25/10:30am 12.6 SW 9 17 1010.1 - 0.0 - - - - - - -
25/10:00am 12.3 WSW 9 19 1010.1 - 0.0 - - - - - - -
25/09:30am 11.0 WSW 7 12 1010.1 - 0.0 - - - - - - -
25/09:00am 10.9 WSW 7 16 1010.0 - 13.8 - - - - - - -
25/08:30am 11.1 WSW 8 15 1009.7 - 13.8 - - - - - - -
25/08:00am 10.6 W 7 12 1009.4 - 13.8 - - - - - - -
25/07:30am 10.1 W 7 14 1009.2 - 13.8 - - - - - - -
25/07:00am 9.7 W 6 10 1009.0 - 13.8 - - - - - - -
25/06:30am 9.4 WSW 7 9 1008.6 - 13.8 - - - - - - -
25/06:00am 9.3 WSW 7 14 1008.2 - 13.8 - - - - - - -
25/05:30am 9.4 WSW 8 14 1007.9 - 13.8 - - - - - - -
25/05:00am 9.5 WSW 8 14 1007.6 - 13.8 - - - - - - -
25/04:30am 9.4 WSW 9 17 1007.2 - 13.8 - - - - - - -
25/04:00am 9.3 WSW 10 17 1006.9 - 13.8 - - - - - - -
25/03:30am 9.3 WSW 9 13 1006.6 - 13.8 - - - - - - -
25/03:00am 9.2 WSW 8 15 1006.3 - 13.8 - - - - - - -
25/02:30am 9.2 WSW 9 16 1006.4 - 13.8 - - - - - - -
25/02:00am 9.7 WSW 9 14 1006.2 - 13.8 - - - - - - -
25/01:30am 10.0 WSW 8 14 1006.4 - 13.4 - - - - - - -
25/01:00am 10.4 SW 10 20 1006.5 - 13.2 - - - - - - -
25/12:30am 9.7 WSW 9 19 1006.2 - 13.0 - - - - - - -
25/12:00am 9.5 WSW 10 17 1006.1 - 13.0 - - - - - - -
 
Date/Time
EST
Temp
°C
Wind Pressure Rain since
9am
mm
Weather Cloud Vis
km
Sea
Height
m
Swell
Dir  Spd
kts
Gust
kts
hPa Trend Height
m
Period
s
Dir
24/11:30pm 9.9 WSW 10 18 1005.9 - 13.0 - - - - - - -
24/11:00pm 10.2 WSW 12 17 1005.6 - 13.0 - - - - - - -
24/10:30pm 10.7 WSW 9 15 1005.7 - 13.0 - - - - - - -
24/10:00pm 11.2 WSW 10 18 1005.7 - 12.8 - - - - - - -
24/09:30pm 11.8 WSW 8 15 1005.6 - 12.2 - - - - - - -
24/09:00pm 12.2 W 7 17 1005.5 - 11.0 Rain - - - - - -
24/08:30pm 12.5 WNW 6 11 1005.6 - 10.8 - - - - - - -
24/08:00pm 12.4 WNW 4 9 1005.4 - 10.8 - - - - - - -
24/07:30pm 12.7 WNW 4 9 1005.0 - 10.8 - - - - - - -
24/07:00pm 12.8 WNW 4 7 1005.2 - 10.8 - - - - - - -
24/06:30pm 13.1 WNW 5 10 1005.5 - 10.2 - - - - - - -
24/06:00pm 13.6 NW 6 11 1005.2 - 9.6 - - - - - - -
24/05:30pm 13.5 NW 4 8 1004.9 - 9.6 - - - - - - -
24/05:00pm 13.4 WNW 4 10 1005.0 - 9.6 - - - - - - -
24/04:30pm 13.8 W 4 7 1005.7 - 9.6 - - - - - - -
24/04:00pm 13.8 SW 8 11 1005.8 - 9.2 - - - - - - -
24/03:30pm 13.9 SSW 11 15 1006.1 - 8.6 - - - - - - -
24/03:00pm 14.3 S 13 15 1006.5 - 8.6 Recent precip. - - - - - -

Other Formats:

Comma delimited format used in spreadsheet applications
http://www.bom.gov.au/fwo/IDN60701/IDN60701.95770.axf

JavaScript Object Notation format (JSON) in row-major order
http://www.bom.gov.au/fwo/IDN60701/IDN60701.95770.json